createdAt,value
2017-07-02T00:00:04.578Z,18.9
2017-07-02T00:00:30.684Z,18.83
2017-07-02T00:00:56.775Z,18.81
2017-07-02T00:01:22.870Z,18.9
2017-07-02T00:01:48.975Z,18.88
2017-07-02T00:02:15.069Z,18.83
2017-07-02T00:02:41.156Z,18.9
2017-07-02T00:03:07.267Z,18.83
2017-07-02T00:03:33.362Z,18.81
2017-07-02T00:03:59.453Z,18.83
2017-07-02T00:04:25.557Z,18.83
2017-07-02T00:04:51.657Z,18.84
2017-07-02T00:05:17.757Z,18.88
2017-07-02T00:05:43.875Z,18.81
2017-07-02T00:06:09.988Z,18.83
2017-07-02T00:06:36.125Z,18.78
2017-07-02T00:07:02.275Z,18.81
2017-07-02T00:07:28.387Z,18.75
2017-07-02T00:07:54.494Z,18.81
2017-07-02T00:08:20.621Z,18.78
2017-07-02T00:08:46.736Z,18.86
2017-07-02T00:09:12.839Z,18.75
2017-07-02T00:09:39.001Z,18.78
2017-07-02T00:10:05.138Z,18.78
2017-07-02T00:10:31.260Z,18.81
2017-07-02T00:10:57.368Z,18.73
2017-07-02T00:11:23.458Z,18.8
2017-07-02T00:11:49.554Z,18.78
2017-07-02T00:12:15.659Z,18.75
2017-07-02T00:12:41.809Z,18.78
2017-07-02T00:13:07.973Z,18.81
2017-07-02T00:13:34.138Z,18.77
2017-07-02T00:14:00.264Z,18.77
2017-07-02T00:14:26.355Z,18.73
2017-07-02T00:14:52.485Z,18.8
2017-07-02T00:15:18.611Z,18.78
2017-07-02T00:15:44.723Z,18.8
2017-07-02T00:16:10.827Z,18.83
2017-07-02T00:16:36.947Z,18.83
2017-07-02T00:17:03.056Z,18.86
2017-07-02T00:17:29.151Z,18.83
2017-07-02T00:17:55.240Z,18.73
2017-07-02T00:18:21.344Z,18.75
2017-07-02T00:18:47.445Z,18.8
2017-07-02T00:19:13.557Z,18.78
2017-07-02T00:19:39.687Z,18.75
2017-07-02T00:20:05.818Z,18.78
2017-07-02T00:20:31.905Z,18.78
2017-07-02T00:20:58.029Z,18.75
2017-07-02T00:21:24.162Z,18.81
2017-07-02T00:21:50.251Z,18.75
2017-07-02T00:22:16.382Z,18.78
2017-07-02T00:22:42.495Z,18.75
2017-07-02T00:23:08.602Z,18.71
2017-07-02T00:23:34.761Z,18.8
2017-07-02T00:24:00.849Z,18.71
2017-07-02T00:24:26.949Z,18.74
2017-07-02T00:24:53.055Z,18.68
2017-07-02T00:25:19.144Z,18.65
2017-07-02T00:25:45.265Z,18.73
2017-07-02T00:26:11.368Z,18.73
2017-07-02T00:26:37.458Z,18.73
2017-07-02T00:27:03.573Z,18.75
2017-07-02T00:27:29.676Z,18.66
2017-07-02T00:27:55.825Z,18.65
2017-07-02T00:28:21.957Z,18.71
2017-07-02T00:28:48.046Z,18.75
2017-07-02T00:29:14.141Z,18.73
2017-07-02T00:29:40.246Z,18.8
2017-07-02T00:30:06.366Z,18.75
2017-07-02T00:30:32.505Z,18.68
2017-07-02T00:30:58.616Z,18.75
2017-07-02T00:31:24.712Z,18.7
2017-07-02T00:31:50.805Z,18.66
2017-07-02T00:32:16.934Z,18.73
2017-07-02T00:32:43.060Z,18.75
2017-07-02T00:33:09.184Z,18.7
2017-07-02T00:33:35.277Z,18.78
2017-07-02T00:34:01.393Z,18.81
2017-07-02T00:34:27.528Z,18.78
2017-07-02T00:34:53.623Z,18.75
2017-07-02T00:35:19.715Z,18.77
2017-07-02T00:35:45.821Z,18.78
2017-07-02T00:36:11.918Z,18.71
2017-07-02T00:36:38.008Z,18.73
2017-07-02T00:37:04.113Z,18.75
2017-07-02T00:37:30.247Z,18.66
2017-07-02T00:37:56.335Z,18.6
2017-07-02T00:38:22.483Z,18.66
2017-07-02T00:38:48.574Z,18.73
2017-07-02T00:39:14.679Z,18.65
2017-07-02T00:39:40.834Z,18.68
2017-07-02T00:40:06.975Z,18.63
2017-07-02T00:40:33.079Z,18.7
2017-07-02T00:40:59.184Z,18.7
2017-07-02T00:41:25.273Z,18.65
2017-07-02T00:41:51.373Z,18.77
2017-07-02T00:42:17.506Z,18.75
2017-07-02T00:42:43.621Z,18.78
2017-07-02T00:43:09.739Z,18.81
2017-07-02T00:43:35.846Z,18.75
2017-07-02T00:44:01.938Z,18.8
2017-07-02T00:44:28.044Z,18.78
2017-07-02T00:44:54.130Z,18.7
2017-07-02T00:45:20.253Z,18.75
2017-07-02T00:45:46.387Z,18.73
2017-07-02T00:46:12.478Z,18.73
2017-07-02T00:46:38.573Z,18.73
2017-07-02T00:47:04.679Z,18.75
2017-07-02T00:47:30.773Z,18.68
2017-07-02T00:47:56.913Z,18.66
2017-07-02T00:48:23.022Z,18.7
2017-07-02T00:48:49.118Z,18.53
2017-07-02T00:49:15.206Z,18.65
2017-07-02T00:49:41.310Z,18.65
2017-07-02T00:50:07.428Z,18.62
2017-07-02T00:50:33.532Z,18.6
2017-07-02T00:50:59.627Z,18.62
2017-07-02T00:51:25.714Z,18.63
2017-07-02T00:51:51.823Z,18.6
2017-07-02T00:52:17.944Z,18.6
2017-07-02T00:52:44.061Z,18.52
2017-07-02T00:53:10.217Z,18.52
2017-07-02T00:53:36.317Z,18.53
2017-07-02T00:54:02.432Z,18.55
2017-07-02T00:54:28.564Z,18.58
2017-07-02T00:54:54.668Z,18.53
2017-07-02T00:55:20.755Z,18.5
2017-07-02T00:55:46.855Z,18.55
2017-07-02T00:56:12.961Z,18.52
2017-07-02T00:56:39.082Z,18.56
2017-07-02T00:57:05.199Z,18.56
2017-07-02T00:57:31.307Z,18.53
2017-07-02T00:57:57.396Z,18.6
2017-07-02T00:58:23.486Z,18.65
2017-07-02T00:58:49.595Z,18.62
2017-07-02T00:59:15.726Z,18.62
2017-07-02T00:59:41.781Z,18.53
2017-07-02T01:00:07.887Z,18.52
2017-07-02T01:00:33.986Z,18.5
2017-07-02T01:01:00.085Z,18.5
2017-07-02T01:01:26.203Z,18.53
2017-07-02T01:01:52.319Z,18.55
2017-07-02T01:02:18.507Z,18.59
2017-07-02T01:02:44.632Z,18.59
2017-07-02T01:03:10.726Z,18.56
2017-07-02T01:03:36.854Z,18.56
2017-07-02T01:04:03.005Z,18.49
2017-07-02T01:04:29.146Z,18.49
2017-07-02T01:04:55.276Z,18.43
2017-07-02T01:05:21.409Z,18.5
2017-07-02T01:05:47.496Z,18.45
2017-07-02T01:06:13.595Z,18.35
2017-07-02T01:06:39.714Z,18.35
2017-07-02T01:07:05.873Z,18.35
2017-07-02T01:07:31.973Z,18.43
2017-07-02T01:07:58.087Z,18.43
2017-07-02T01:08:24.190Z,18.38
2017-07-02T01:08:50.350Z,18.4
2017-07-02T01:09:16.437Z,18.35
2017-07-02T01:09:42.557Z,18.37
2017-07-02T01:10:08.718Z,18.31
2017-07-02T01:10:34.807Z,18.37
2017-07-02T01:11:00.903Z,18.34
2017-07-02T01:11:27.009Z,18.33
2017-07-02T01:11:53.127Z,18.37
2017-07-02T01:12:19.257Z,18.44
2017-07-02T01:12:45.343Z,18.34
2017-07-02T01:13:11.442Z,18.33
2017-07-02T01:13:37.575Z,18.35
2017-07-02T01:14:03.667Z,18.38
2017-07-02T01:14:29.787Z,18.26
2017-07-02T01:14:55.921Z,18.23
2017-07-02T01:15:22.062Z,18.31
2017-07-02T01:15:48.179Z,18.28
2017-07-02T01:16:14.346Z,18.34
2017-07-02T01:16:40.469Z,18.34
2017-07-02T01:17:06.585Z,18.31
2017-07-02T01:17:32.692Z,18.29
2017-07-02T01:17:58.811Z,18.25
2017-07-02T01:18:24.945Z,18.38
2017-07-02T01:18:51.059Z,18.34
2017-07-02T01:19:17.175Z,18.38
2017-07-02T01:19:43.311Z,18.35
2017-07-02T01:20:09.437Z,18.29
2017-07-02T01:20:35.552Z,18.31
2017-07-02T01:21:01.709Z,18.31
2017-07-02T01:21:27.821Z,18.28
2017-07-02T01:21:53.921Z,18.37
2017-07-02T01:22:20.077Z,18.28
2017-07-02T01:22:46.183Z,18.31
2017-07-02T01:23:12.277Z,18.33
2017-07-02T01:23:38.398Z,18.26
2017-07-02T01:24:04.486Z,18.26
2017-07-02T01:24:30.648Z,18.33
2017-07-02T01:24:56.774Z,18.33
2017-07-02T01:25:22.863Z,18.29
2017-07-02T01:25:48.967Z,18.28
2017-07-02T01:26:15.072Z,18.28
2017-07-02T01:26:41.159Z,18.28
2017-07-02T01:27:07.285Z,18.28
2017-07-02T01:27:33.417Z,18.2
2017-07-02T01:27:59.535Z,18.19
2017-07-02T01:28:25.658Z,18.19
2017-07-02T01:28:51.808Z,18.28
2017-07-02T01:29:17.933Z,18.31
2017-07-02T01:29:44.066Z,18.28
2017-07-02T01:30:10.206Z,18.29
2017-07-02T01:30:36.304Z,18.26
2017-07-02T01:31:02.411Z,18.25
2017-07-02T01:31:28.502Z,18.25
2017-07-02T01:31:54.621Z,18.28
2017-07-02T01:32:20.726Z,18.28
2017-07-02T01:32:46.845Z,18.28
2017-07-02T01:33:12.983Z,18.25
2017-07-02T01:33:39.119Z,18.31
2017-07-02T01:34:05.243Z,18.25
2017-07-02T01:34:31.397Z,18.26
2017-07-02T01:34:57.487Z,18.29
2017-07-02T01:35:23.607Z,18.29
2017-07-02T01:35:49.739Z,18.23
2017-07-02T01:36:15.832Z,18.28
2017-07-02T01:36:41.948Z,18.16
2017-07-02T01:37:08.092Z,18.2
2017-07-02T01:37:34.232Z,18.25
2017-07-02T01:38:00.322Z,18.28
2017-07-02T01:38:26.455Z,18.23
2017-07-02T01:38:52.610Z,18.28
2017-07-02T01:39:18.748Z,18.26
2017-07-02T01:39:44.849Z,18.29
2017-07-02T01:40:10.954Z,18.31
2017-07-02T01:40:37.044Z,18.28
2017-07-02T01:41:03.165Z,18.25
2017-07-02T01:41:29.297Z,18.26
2017-07-02T01:41:55.387Z,18.26
2017-07-02T01:42:21.482Z,18.26
2017-07-02T01:42:47.585Z,18.25
2017-07-02T01:43:13.680Z,18.29
2017-07-02T01:43:39.770Z,18.2
2017-07-02T01:44:05.902Z,18.26
2017-07-02T01:44:31.997Z,18.22
2017-07-02T01:44:58.087Z,18.25
2017-07-02T01:45:24.218Z,18.22
2017-07-02T01:45:50.310Z,18.2
2017-07-02T01:46:16.443Z,18.22
2017-07-02T01:46:42.562Z,18.23
2017-07-02T01:47:08.652Z,18.13
2017-07-02T01:47:34.762Z,18.18
2017-07-02T01:48:00.883Z,18.1
2017-07-02T01:48:26.974Z,18.16
2017-07-02T01:48:53.106Z,18.11
2017-07-02T01:49:19.211Z,18.18
2017-07-02T01:49:45.321Z,18.18
2017-07-02T01:50:11.423Z,18.07
2017-07-02T01:50:37.557Z,18.08
2017-07-02T01:51:03.650Z,18.15
2017-07-02T01:51:29.747Z,18.07
2017-07-02T01:51:55.838Z,18.1
2017-07-02T01:52:21.942Z,18.05
2017-07-02T01:52:48.040Z,18.01
2017-07-02T01:53:14.130Z,18.05
2017-07-02T01:53:40.255Z,18.05
2017-07-02T01:54:06.397Z,18.08
2017-07-02T01:54:32.484Z,18.1
2017-07-02T01:54:58.610Z,18.1
2017-07-02T01:55:24.743Z,18.1
2017-07-02T01:55:50.833Z,18.1
2017-07-02T01:56:16.929Z,18.1
2017-07-02T01:56:43.031Z,18.05
2017-07-02T01:57:09.205Z,18.1
2017-07-02T01:57:35.337Z,18.05
2017-07-02T01:58:01.448Z,18.04
2017-07-02T01:58:27.548Z,18.01
2017-07-02T01:58:53.652Z,18.07
2017-07-02T01:59:19.770Z,18.03
2017-07-02T01:59:45.890Z,18.01
2017-07-02T02:00:12.024Z,18
2017-07-02T02:00:38.141Z,18.04
2017-07-02T02:01:04.233Z,18.03
2017-07-02T02:01:30.365Z,17.98
2017-07-02T02:01:56.460Z,17.95
2017-07-02T02:02:22.562Z,17.95
2017-07-02T02:02:48.676Z,17.89
2017-07-02T02:03:14.773Z,17.89
2017-07-02T02:03:40.938Z,17.85
2017-07-02T02:04:07.090Z,17.89
2017-07-02T02:04:33.222Z,17.95
2017-07-02T02:04:59.332Z,17.98
2017-07-02T02:05:25.455Z,17.94
2017-07-02T02:05:51.561Z,18.01
2017-07-02T02:06:17.650Z,17.97
2017-07-02T02:06:43.746Z,18
2017-07-02T02:07:09.879Z,18.03
2017-07-02T02:07:35.972Z,17.94
2017-07-02T02:08:02.075Z,17.95
2017-07-02T02:08:28.188Z,18
2017-07-02T02:08:54.287Z,17.94
2017-07-02T02:09:20.394Z,17.97
2017-07-02T02:09:46.509Z,18
2017-07-02T02:10:12.605Z,17.97
2017-07-02T02:10:38.710Z,18
2017-07-02T02:11:04.804Z,17.92
2017-07-02T02:11:30.895Z,18.01
2017-07-02T02:11:57.002Z,18
2017-07-02T02:12:23.099Z,18
2017-07-02T02:12:49.213Z,17.97
2017-07-02T02:13:15.319Z,18
2017-07-02T02:13:41.412Z,17.94
2017-07-02T02:14:07.518Z,17.95
2017-07-02T02:14:33.660Z,17.98
2017-07-02T02:14:59.752Z,17.94
2017-07-02T02:15:25.862Z,17.86
2017-07-02T02:15:51.956Z,17.89
2017-07-02T02:16:18.044Z,17.89
2017-07-02T02:16:44.148Z,17.83
2017-07-02T02:17:10.248Z,17.85
2017-07-02T02:17:36.336Z,17.86
2017-07-02T02:18:02.466Z,17.87
2017-07-02T02:18:28.573Z,17.85
2017-07-02T02:18:54.666Z,17.82
2017-07-02T02:19:20.761Z,17.85
2017-07-02T02:19:46.902Z,17.87
2017-07-02T02:20:13.115Z,17.78
2017-07-02T02:20:39.250Z,17.86
2017-07-02T02:21:05.305Z,17.87
2017-07-02T02:21:31.407Z,17.87
2017-07-02T02:21:57.542Z,17.85
2017-07-02T02:22:23.680Z,17.85
2017-07-02T02:22:49.802Z,17.86
2017-07-02T02:23:15.909Z,17.89
2017-07-02T02:23:42.023Z,17.87
2017-07-02T02:24:08.119Z,17.95
2017-07-02T02:24:34.256Z,17.95
2017-07-02T02:25:00.370Z,17.89
2017-07-02T02:25:26.486Z,17.98
2017-07-02T02:25:52.595Z,17.97
2017-07-02T02:26:18.718Z,17.92
2017-07-02T02:26:44.808Z,17.97
2017-07-02T02:27:10.913Z,17.85
2017-07-02T02:27:37.069Z,17.8
2017-07-02T02:28:03.157Z,17.85
2017-07-02T02:28:29.284Z,17.85
2017-07-02T02:28:55.416Z,17.85
2017-07-02T02:29:21.530Z,17.89
2017-07-02T02:29:47.678Z,17.85
2017-07-02T02:30:13.796Z,17.79
2017-07-02T02:30:39.931Z,17.8
2017-07-02T02:31:06.086Z,17.86
2017-07-02T02:31:32.177Z,17.85
2017-07-02T02:31:58.306Z,17.82
2017-07-02T02:32:24.411Z,17.8
2017-07-02T02:32:50.499Z,17.82
2017-07-02T02:33:16.604Z,17.76
2017-07-02T02:33:42.709Z,17.76
2017-07-02T02:34:08.822Z,17.85
2017-07-02T02:34:34.919Z,17.8
2017-07-02T02:35:01.052Z,17.74
2017-07-02T02:35:27.144Z,17.85
2017-07-02T02:35:53.288Z,17.82
2017-07-02T02:36:19.336Z,17.8
2017-07-02T02:36:45.437Z,17.87
2017-07-02T02:37:11.601Z,17.89
2017-07-02T02:37:37.718Z,17.85
2017-07-02T02:38:03.816Z,17.87
2017-07-02T02:38:29.974Z,17.85
2017-07-02T02:38:56.096Z,17.86
2017-07-02T02:39:22.186Z,17.82
2017-07-02T02:39:48.291Z,17.78
2017-07-02T02:40:14.417Z,17.86
2017-07-02T02:40:40.529Z,17.83
2017-07-02T02:41:06.660Z,17.85
2017-07-02T02:41:32.752Z,17.9
2017-07-02T02:41:58.857Z,17.87
2017-07-02T02:42:25.003Z,17.94
2017-07-02T02:42:51.092Z,17.95
2017-07-02T02:43:17.227Z,17.94
2017-07-02T02:43:43.348Z,18
2017-07-02T02:44:09.439Z,17.98
2017-07-02T02:44:35.565Z,17.92
2017-07-02T02:45:01.667Z,17.9
2017-07-02T02:45:27.806Z,17.92
2017-07-02T02:45:53.909Z,17.86
2017-07-02T02:46:20.042Z,17.85
2017-07-02T02:46:46.129Z,17.86
2017-07-02T02:47:12.229Z,17.83
2017-07-02T02:47:38.363Z,17.89
2017-07-02T02:48:04.453Z,17.9
2017-07-02T02:48:30.549Z,17.95
2017-07-02T02:48:56.653Z,17.89
2017-07-02T02:49:22.746Z,17.98
2017-07-02T02:49:48.835Z,18.01
2017-07-02T02:50:14.968Z,17.94
2017-07-02T02:50:41.065Z,17.9
2017-07-02T02:51:07.193Z,17.78
2017-07-02T02:51:33.288Z,17.76
2017-07-02T02:51:59.412Z,17.8
2017-07-02T02:52:25.514Z,17.79
2017-07-02T02:52:51.654Z,17.78
2017-07-02T02:53:17.789Z,17.8
2017-07-02T02:53:43.951Z,17.74
2017-07-02T02:54:10.098Z,17.79
2017-07-02T02:54:36.188Z,17.78
2017-07-02T02:55:02.319Z,17.8
2017-07-02T02:55:28.419Z,17.78
2017-07-02T02:55:54.504Z,17.8
2017-07-02T02:56:20.633Z,17.78
2017-07-02T02:56:46.740Z,17.85
2017-07-02T02:57:12.852Z,17.78
2017-07-02T02:57:39.003Z,17.8
2017-07-02T02:58:05.096Z,17.76
2017-07-02T02:58:31.228Z,17.72
2017-07-02T02:58:57.384Z,17.82
2017-07-02T02:59:23.500Z,17.89
2017-07-02T02:59:49.653Z,17.82
2017-07-02T03:00:15.786Z,17.79
2017-07-02T03:00:41.875Z,17.79
2017-07-02T03:01:08.023Z,17.79
2017-07-02T03:01:34.136Z,17.8
2017-07-02T03:02:00.248Z,17.79
2017-07-02T03:02:26.345Z,17.8
2017-07-02T03:02:52.452Z,17.86
2017-07-02T03:03:18.569Z,17.83
2017-07-02T03:03:44.673Z,17.74
2017-07-02T03:04:10.757Z,17.86
2017-07-02T03:04:36.885Z,17.8
2017-07-02T03:05:02.997Z,17.59
2017-07-02T03:05:29.107Z,17.68
2017-07-02T03:05:55.255Z,17.63
2017-07-02T03:06:21.388Z,17.54
2017-07-02T03:06:47.504Z,17.74
2017-07-02T03:07:13.593Z,17.72
2017-07-02T03:07:39.702Z,17.76
2017-07-02T03:08:05.798Z,17.59
2017-07-02T03:08:31.888Z,17.59
2017-07-02T03:08:57.993Z,17.51
2017-07-02T03:09:24.124Z,17.52
2017-07-02T03:09:50.235Z,17.46
2017-07-02T03:10:16.337Z,17.51
2017-07-02T03:10:42.499Z,17.52
2017-07-02T03:11:08.585Z,17.57
2017-07-02T03:11:34.686Z,17.52
2017-07-02T03:12:00.789Z,17.45
2017-07-02T03:12:26.903Z,17.46
2017-07-02T03:12:53.048Z,17.45
2017-07-02T03:13:19.182Z,17.44
2017-07-02T03:13:45.301Z,17.46
2017-07-02T03:14:11.393Z,17.46
2017-07-02T03:14:37.523Z,17.46
2017-07-02T03:15:03.671Z,17.49
2017-07-02T03:15:29.777Z,17.46
2017-07-02T03:15:55.864Z,17.59
2017-07-02T03:16:21.959Z,17.67
2017-07-02T03:16:48.065Z,17.56
2017-07-02T03:17:14.158Z,17.41
2017-07-02T03:17:40.247Z,17.51
2017-07-02T03:18:06.384Z,17.49
2017-07-02T03:18:32.482Z,17.6
2017-07-02T03:18:58.596Z,17.44
2017-07-02T03:19:24.699Z,17.46
2017-07-02T03:19:50.798Z,17.52
2017-07-02T03:20:16.922Z,17.49
2017-07-02T03:20:43.040Z,17.54
2017-07-02T03:21:09.129Z,17.51
2017-07-02T03:21:35.239Z,17.44
2017-07-02T03:22:01.388Z,17.42
2017-07-02T03:22:27.477Z,17.45
2017-07-02T03:22:53.606Z,17.39
2017-07-02T03:23:19.705Z,17.41
2017-07-02T03:23:45.794Z,17.38
2017-07-02T03:24:11.922Z,17.38
2017-07-02T03:24:38.023Z,17.39
2017-07-02T03:25:04.134Z,17.33
2017-07-02T03:25:30.258Z,17.42
2017-07-02T03:25:56.378Z,17.39
2017-07-02T03:26:22.483Z,17.33
2017-07-02T03:26:48.583Z,17.34
2017-07-02T03:27:14.673Z,17.42
2017-07-02T03:27:40.776Z,17.36
2017-07-02T03:28:06.910Z,17.36
2017-07-02T03:28:33.049Z,17.42
2017-07-02T03:28:59.171Z,17.39
2017-07-02T03:29:25.302Z,17.41
2017-07-02T03:29:51.418Z,17.44
2017-07-02T03:30:17.539Z,17.41
2017-07-02T03:30:43.642Z,17.42
2017-07-02T03:31:09.734Z,17.46
2017-07-02T03:31:35.838Z,17.38
2017-07-02T03:32:01.923Z,17.52
2017-07-02T03:32:28.024Z,17.54
2017-07-02T03:32:54.129Z,17.45
2017-07-02T03:33:20.296Z,17.46
2017-07-02T03:33:46.418Z,17.39
2017-07-02T03:34:12.522Z,17.51
2017-07-02T03:34:38.615Z,17.41
2017-07-02T03:35:04.707Z,17.46
2017-07-02T03:35:30.840Z,17.44
2017-07-02T03:35:56.936Z,17.42
2017-07-02T03:36:23.027Z,17.41
2017-07-02T03:36:49.133Z,17.44
2017-07-02T03:37:15.250Z,17.36
2017-07-02T03:37:41.382Z,17.42
2017-07-02T03:38:07.526Z,17.48
2017-07-02T03:38:33.616Z,17.48
2017-07-02T03:38:59.726Z,17.46
2017-07-02T03:39:25.850Z,17.52
2017-07-02T03:39:51.966Z,17.48
2017-07-02T03:40:18.073Z,17.63
2017-07-02T03:40:44.173Z,17.49
2017-07-02T03:41:10.264Z,17.48
2017-07-02T03:41:36.392Z,17.59
2017-07-02T03:42:02.497Z,17.48
2017-07-02T03:42:28.589Z,17.45
2017-07-02T03:42:54.739Z,17.44
2017-07-02T03:43:20.902Z,17.46
2017-07-02T03:43:47.009Z,17.49
2017-07-02T03:44:13.131Z,17.46
2017-07-02T03:44:39.219Z,17.45
2017-07-02T03:45:05.323Z,17.64
2017-07-02T03:45:31.426Z,17.49
2017-07-02T03:45:57.511Z,17.51
2017-07-02T03:46:23.610Z,17.64
2017-07-02T03:46:49.716Z,17.57
2017-07-02T03:47:15.834Z,17.54
2017-07-02T03:47:41.930Z,17.49
2017-07-02T03:48:08.046Z,17.48
2017-07-02T03:48:34.177Z,17.48
2017-07-02T03:49:00.286Z,17.51
2017-07-02T03:49:26.371Z,17.56
2017-07-02T03:49:52.496Z,17.56
2017-07-02T03:50:18.629Z,17.49
2017-07-02T03:50:44.747Z,17.51
2017-07-02T03:51:10.842Z,17.51
2017-07-02T03:51:36.972Z,17.52
2017-07-02T03:52:03.064Z,17.54
2017-07-02T03:52:29.156Z,17.48
2017-07-02T03:52:55.292Z,17.54
2017-07-02T03:53:21.389Z,17.6
2017-07-02T03:53:47.502Z,17.52
2017-07-02T03:54:13.636Z,17.51
2017-07-02T03:54:39.788Z,17.46
2017-07-02T03:55:05.930Z,17.46
2017-07-02T03:55:32.083Z,17.52
2017-07-02T03:55:58.189Z,17.51
2017-07-02T03:56:24.276Z,17.51
2017-07-02T03:56:50.375Z,17.6
2017-07-02T03:57:16.479Z,17.64
2017-07-02T03:57:42.594Z,17.56
2017-07-02T03:58:08.740Z,17.6
2017-07-02T03:58:34.873Z,17.49
2017-07-02T03:59:00.967Z,17.6
2017-07-02T03:59:27.072Z,17.65
2017-07-02T03:59:53.158Z,17.65
2017-07-02T04:00:19.310Z,17.63
2017-07-02T04:00:45.443Z,17.64
2017-07-02T04:01:11.587Z,17.6
2017-07-02T04:01:37.706Z,17.6
2017-07-02T04:02:03.813Z,17.63
2017-07-02T04:02:29.905Z,17.63
2017-07-02T04:02:56.019Z,17.6
2017-07-02T04:03:22.127Z,17.6
2017-07-02T04:03:48.225Z,17.63
2017-07-02T04:04:14.337Z,17.65
2017-07-02T04:04:40.497Z,17.64
2017-07-02T04:05:06.587Z,17.63
2017-07-02T04:05:32.692Z,17.64
2017-07-02T04:05:58.806Z,17.8
2017-07-02T04:06:24.921Z,17.78
2017-07-02T04:06:51.050Z,17.65
2017-07-02T04:07:17.174Z,17.67
2017-07-02T04:07:43.259Z,17.63
2017-07-02T04:08:09.364Z,17.7
2017-07-02T04:08:35.492Z,17.67
2017-07-02T04:09:01.581Z,17.72
2017-07-02T04:09:27.708Z,17.63
2017-07-02T04:09:53.815Z,17.65
2017-07-02T04:10:19.906Z,17.65
2017-07-02T04:10:46.002Z,17.71
2017-07-02T04:11:12.092Z,17.65
2017-07-02T04:11:38.196Z,17.79
2017-07-02T04:12:04.325Z,17.79
2017-07-02T04:12:30.415Z,17.72
2017-07-02T04:12:56.518Z,17.78
2017-07-02T04:13:22.651Z,17.86
2017-07-02T04:13:48.765Z,17.82
2017-07-02T04:14:14.891Z,17.83
2017-07-02T04:14:40.998Z,17.8
2017-07-02T04:15:07.089Z,17.8
2017-07-02T04:15:33.186Z,17.85
2017-07-02T04:15:59.282Z,17.71
2017-07-02T04:16:25.384Z,17.79
2017-07-02T04:16:51.489Z,17.79
2017-07-02T04:17:17.598Z,17.78
2017-07-02T04:17:43.698Z,17.78
2017-07-02T04:18:09.829Z,17.72
2017-07-02T04:18:35.921Z,17.8
2017-07-02T04:19:02.019Z,17.78
2017-07-02T04:19:28.124Z,17.79
2017-07-02T04:19:54.240Z,17.74
2017-07-02T04:20:20.330Z,17.74
2017-07-02T04:20:46.461Z,17.6
2017-07-02T04:21:12.560Z,17.68
2017-07-02T04:21:38.662Z,17.63
2017-07-02T04:22:04.753Z,17.6
2017-07-02T04:22:30.874Z,17.63
2017-07-02T04:22:57.005Z,17.52
2017-07-02T04:23:23.097Z,17.65
2017-07-02T04:23:49.184Z,17.65
2017-07-02T04:24:15.296Z,17.6
2017-07-02T04:24:41.419Z,17.64
2017-07-02T04:25:07.534Z,17.68
2017-07-02T04:25:33.664Z,17.64
2017-07-02T04:25:59.761Z,17.65
2017-07-02T04:26:25.851Z,17.71
2017-07-02T04:26:51.983Z,17.63
2017-07-02T04:27:18.093Z,17.6
2017-07-02T04:27:44.200Z,17.64
2017-07-02T04:28:10.325Z,17.63
2017-07-02T04:28:36.465Z,17.67
2017-07-02T04:29:02.596Z,17.67
2017-07-02T04:29:28.696Z,17.65
2017-07-02T04:29:54.787Z,17.72
2017-07-02T04:30:20.919Z,17.71
2017-07-02T04:30:47.025Z,17.83
2017-07-02T04:31:13.138Z,17.64
2017-07-02T04:31:39.284Z,17.63
2017-07-02T04:32:05.417Z,17.57
2017-07-02T04:32:31.530Z,17.68
2017-07-02T04:32:57.689Z,17.64
2017-07-02T04:33:23.804Z,17.64
2017-07-02T04:33:49.907Z,17.6
2017-07-02T04:34:16.071Z,17.59
2017-07-02T04:34:42.209Z,17.67
2017-07-02T04:35:08.331Z,17.63
2017-07-02T04:35:34.435Z,17.63
2017-07-02T04:36:00.525Z,17.46
2017-07-02T04:36:26.620Z,17.57
2017-07-02T04:36:52.725Z,17.48
2017-07-02T04:37:18.819Z,17.38
2017-07-02T04:37:44.912Z,17.39
2017-07-02T04:38:11.019Z,17.46
2017-07-02T04:38:37.144Z,17.48
2017-07-02T04:39:03.258Z,17.49
2017-07-02T04:39:29.364Z,17.45
2017-07-02T04:39:55.463Z,17.45
2017-07-02T04:40:21.556Z,17.39
2017-07-02T04:40:47.658Z,17.45
2017-07-02T04:41:13.764Z,17.49
2017-07-02T04:41:39.848Z,17.52
2017-07-02T04:42:05.948Z,17.44
2017-07-02T04:42:32.054Z,17.45
2017-07-02T04:42:58.146Z,17.52
2017-07-02T04:43:24.242Z,17.51
2017-07-02T04:43:50.335Z,17.41
2017-07-02T04:44:16.438Z,17.52
2017-07-02T04:44:42.543Z,17.51
2017-07-02T04:45:08.655Z,17.56
2017-07-02T04:45:34.755Z,17.48
2017-07-02T04:46:00.861Z,17.44
2017-07-02T04:46:26.950Z,17.64
2017-07-02T04:46:53.067Z,17.6
2017-07-02T04:47:19.172Z,17.65
2017-07-02T04:47:45.295Z,17.67
2017-07-02T04:48:11.384Z,17.65
2017-07-02T04:48:37.491Z,17.76
2017-07-02T04:49:03.613Z,17.79
2017-07-02T04:49:29.716Z,17.63
2017-07-02T04:49:55.832Z,17.59
2017-07-02T04:50:21.953Z,17.63
2017-07-02T04:50:48.090Z,17.65
2017-07-02T04:51:14.176Z,17.6
2017-07-02T04:51:40.265Z,17.71
2017-07-02T04:52:06.401Z,17.7
2017-07-02T04:52:32.524Z,17.63
2017-07-02T04:52:58.639Z,17.68
2017-07-02T04:53:24.744Z,17.68
2017-07-02T04:53:50.843Z,17.67
2017-07-02T04:54:16.959Z,17.72
2017-07-02T04:54:43.061Z,17.78
2017-07-02T04:55:09.150Z,17.74
2017-07-02T04:55:35.286Z,17.78
2017-07-02T04:56:01.384Z,17.74
2017-07-02T04:56:27.476Z,17.64
2017-07-02T04:56:53.633Z,17.78
2017-07-02T04:57:19.760Z,17.78
2017-07-02T04:57:45.852Z,17.78
2017-07-02T04:58:11.979Z,17.76
2017-07-02T04:58:38.140Z,17.82
2017-07-02T04:59:04.252Z,17.85
2017-07-02T04:59:30.377Z,17.85
2017-07-02T04:59:56.510Z,17.8
2017-07-02T05:00:22.599Z,17.79
2017-07-02T05:00:48.702Z,17.86
2017-07-02T05:01:14.817Z,17.9
2017-07-02T05:01:40.948Z,17.97
2017-07-02T05:02:07.136Z,17.98
2017-07-02T05:02:33.245Z,18.01
2017-07-02T05:02:59.344Z,18.04
2017-07-02T05:03:25.479Z,18.11
2017-07-02T05:03:51.568Z,18.07
2017-07-02T05:04:17.688Z,18.1
2017-07-02T05:04:43.792Z,18.03
2017-07-02T05:05:09.884Z,18.08
2017-07-02T05:05:35.970Z,18.04
2017-07-02T05:06:02.075Z,17.98
2017-07-02T05:06:28.229Z,18
2017-07-02T05:06:54.359Z,17.9
2017-07-02T05:07:20.447Z,17.94
2017-07-02T05:07:46.543Z,18.01
2017-07-02T05:08:12.677Z,18
2017-07-02T05:08:38.798Z,18.01
2017-07-02T05:09:04.911Z,17.97
2017-07-02T05:09:31.048Z,17.97
2017-07-02T05:09:57.145Z,17.94
2017-07-02T05:10:23.237Z,17.98
2017-07-02T05:10:49.340Z,17.94
2017-07-02T05:11:15.468Z,17.92
2017-07-02T05:11:41.566Z,17.92
2017-07-02T05:12:07.660Z,17.95
2017-07-02T05:12:33.752Z,17.98
2017-07-02T05:12:59.886Z,17.98
2017-07-02T05:13:26.066Z,18.03
2017-07-02T05:13:52.208Z,17.98
2017-07-02T05:14:18.313Z,18.07
2017-07-02T05:14:44.437Z,17.98
2017-07-02T05:15:10.556Z,18.05
2017-07-02T05:15:36.685Z,18.1
2017-07-02T05:16:02.789Z,18.1
2017-07-02T05:16:28.902Z,18.15
2017-07-02T05:16:55.001Z,18.07
2017-07-02T05:17:21.119Z,18.19
2017-07-02T05:17:47.224Z,18.13
2017-07-02T05:18:13.323Z,18.07
2017-07-02T05:18:39.439Z,18.1
2017-07-02T05:19:05.617Z,18.08
2017-07-02T05:19:31.748Z,18.13
2017-07-02T05:19:57.834Z,18.07
2017-07-02T05:20:23.960Z,18.1
2017-07-02T05:20:50.066Z,18.1
2017-07-02T05:21:16.180Z,18.1
2017-07-02T05:21:42.278Z,18.11
2017-07-02T05:22:08.383Z,18.01
2017-07-02T05:22:34.475Z,18.01
2017-07-02T05:23:00.564Z,18.03
2017-07-02T05:23:26.674Z,18.08
2017-07-02T05:23:52.851Z,18.03
2017-07-02T05:24:18.941Z,17.97
2017-07-02T05:24:45.095Z,18.04
2017-07-02T05:25:11.198Z,17.97
2017-07-02T05:25:37.287Z,18.04
2017-07-02T05:26:03.388Z,18.01
2017-07-02T05:26:29.496Z,18.07
2017-07-02T05:26:55.580Z,18.05
2017-07-02T05:27:21.682Z,18.07
2017-07-02T05:27:47.841Z,18.18
2017-07-02T05:28:13.982Z,18.08
2017-07-02T05:28:40.112Z,18.11
2017-07-02T05:29:06.276Z,18.15
2017-07-02T05:29:32.406Z,18.16
2017-07-02T05:29:58.511Z,18.11
2017-07-02T05:30:24.620Z,18.1
2017-07-02T05:30:50.720Z,18.15
2017-07-02T05:31:16.853Z,18.15
2017-07-02T05:31:42.947Z,18.16
2017-07-02T05:32:09.039Z,18.18
2017-07-02T05:32:35.172Z,18.22
2017-07-02T05:33:01.293Z,18.25
2017-07-02T05:33:27.385Z,18.08
2017-07-02T05:33:53.488Z,18.19
2017-07-02T05:34:19.587Z,18.15
2017-07-02T05:34:45.694Z,18.11
2017-07-02T05:35:11.785Z,18.16
2017-07-02T05:35:37.879Z,18.16
2017-07-02T05:36:03.984Z,18.16
2017-07-02T05:36:30.081Z,18.15
2017-07-02T05:36:56.165Z,18.05
2017-07-02T05:37:22.275Z,18.15
2017-07-02T05:37:48.372Z,18.03